createdAt,value
2023-03-22T00:01:48.663Z,81.97
2023-03-22T00:04:46.584Z,92.25
2023-03-22T00:07:44.393Z,91.22
2023-03-22T00:10:42.591Z,92.05
2023-03-22T00:13:40.441Z,84.68
2023-03-22T00:16:38.097Z,82.45
2023-03-22T00:19:35.823Z,85.78
2023-03-22T00:22:33.886Z,94.50
2023-03-22T00:25:32.006Z,89.35
2023-03-22T00:28:29.660Z,83.22
2023-03-22T00:31:27.434Z,87.53
2023-03-22T00:34:25.120Z,90.72
2023-03-22T00:37:22.847Z,94.15
2023-03-22T00:40:20.793Z,90.10
2023-03-22T00:43:18.829Z,92.10
2023-03-22T00:46:18.442Z,90.18
2023-03-22T00:49:16.146Z,84.43
2023-03-22T00:52:13.859Z,85.07
2023-03-22T00:55:11.608Z,86.45
2023-03-22T00:58:09.158Z,78.50
2023-03-22T01:01:07.883Z,80.45
2023-03-22T01:04:06.081Z,88.95
2023-03-22T01:07:08.167Z,87.22
2023-03-22T01:10:07.187Z,77.82
2023-03-22T01:13:05.576Z,73.57
2023-03-22T01:16:03.296Z,84.43
2023-03-22T01:19:01.812Z,86.28
2023-03-22T01:21:59.742Z,86.35
2023-03-22T01:24:57.392Z,76.40
2023-03-22T01:27:55.346Z,86.10
2023-03-22T01:30:53.090Z,84.78
2023-03-22T01:33:51.311Z,76.97
2023-03-22T01:36:50.664Z,82.07
2023-03-22T01:39:48.769Z,77.57
2023-03-22T01:42:46.582Z,80.45
2023-03-22T01:45:46.184Z,90.95
2023-03-22T01:48:47.032Z,82.63
2023-03-22T01:51:47.690Z,86.07
2023-03-22T01:54:49.407Z,74.85
2023-03-22T01:57:47.149Z,79.40
2023-03-22T02:00:47.242Z,80.40
2023-03-22T02:03:50.735Z,77.75
2023-03-22T02:06:49.008Z,75.72
2023-03-22T02:09:47.559Z,80.03
2023-03-22T02:13:02.587Z,83.43
2023-03-22T02:16:52.500Z,84.22
2023-03-22T02:20:25.030Z,83.10
2023-03-22T02:23:46.631Z,84.18
2023-03-22T02:27:07.516Z,82.23
2023-03-22T02:30:21.311Z,84.43
2023-03-22T02:33:21.963Z,91.55
2023-03-22T02:36:46.988Z,79.72
2023-03-22T02:40:06.094Z,82.22
2023-03-22T02:43:16.558Z,89.35
2023-03-22T02:46:27.066Z,83.65
2023-03-22T02:49:46.460Z,87.35
2023-03-22T02:52:54.449Z,84.95
2023-03-22T02:56:30.674Z,88.90
2023-03-22T02:59:30.313Z,82.53
2023-03-22T03:02:29.585Z,88.85
2023-03-22T03:05:30.776Z,85.43
2023-03-22T03:08:29.810Z,84.50
2023-03-22T03:11:27.499Z,84.90
2023-03-22T03:14:31.381Z,90.78
2023-03-22T03:17:54.375Z,79.32
2023-03-22T03:21:05.318Z,73.40
2023-03-22T03:24:33.010Z,74.85
2023-03-22T03:27:50.287Z,71.75
2023-03-22T03:31:00.106Z,68.47
2023-03-22T03:34:06.069Z,62.85
2023-03-22T03:37:16.383Z,62.83
2023-03-22T03:40:18.614Z,64.47
2023-03-22T03:43:17.160Z,65.63
2023-03-22T03:46:16.462Z,63.20
2023-03-22T03:49:16.933Z,68.40
2023-03-22T03:52:15.225Z,63.78
2023-03-22T03:55:13.265Z,62.67
2023-03-22T03:58:12.395Z,62.95
2023-03-22T04:01:10.526Z,67.60
2023-03-22T04:04:08.371Z,57.63
2023-03-22T04:07:07.670Z,55.85
2023-03-22T04:10:06.539Z,60.28
2023-03-22T04:13:04.262Z,59.40
2023-03-22T04:16:02.538Z,64.22
2023-03-22T04:19:00.202Z,52.10
2023-03-22T04:21:57.789Z,55.47
2023-03-22T04:24:56.392Z,67.35
2023-03-22T04:27:56.329Z,57.67
2023-03-22T04:30:54.367Z,54.45
2023-03-22T04:33:55.707Z,55.83
2023-03-22T04:36:53.626Z,63.78
2023-03-22T04:39:51.753Z,65.38
2023-03-22T04:42:49.692Z,50.95
2023-03-22T04:45:47.967Z,50.63
2023-03-22T04:48:46.008Z,57.53
2023-03-22T04:51:44.273Z,46.35
2023-03-22T04:54:42.598Z,52.53
2023-03-22T04:57:40.611Z,56.30
2023-03-22T05:00:39.153Z,47.05
2023-03-22T05:03:37.884Z,43.13
2023-03-22T05:06:36.309Z,53.72
2023-03-22T05:09:34.263Z,48.22
2023-03-22T05:12:33.249Z,53.50
2023-03-22T05:15:32.958Z,51.80
2023-03-22T05:18:33.466Z,52.53
2023-03-22T05:39:00.204Z,47.25
2023-03-22T05:41:57.846Z,46.75
2023-03-22T05:44:55.882Z,50.97
2023-03-22T05:47:53.661Z,43.65
2023-03-22T05:50:51.465Z,43.55
2023-03-22T05:53:49.901Z,47.72
2023-03-22T05:56:47.871Z,42.80
2023-03-22T05:59:45.481Z,41.00
2023-03-22T06:02:47.973Z,46.00
2023-03-22T06:05:47.036Z,46.28
2023-03-22T06:08:44.808Z,42.50
2023-03-22T06:11:42.582Z,46.13
2023-03-22T06:14:40.286Z,45.05
2023-03-22T06:17:38.299Z,44.72
2023-03-22T06:20:36.066Z,46.63
2023-03-22T06:23:33.672Z,44.75
2023-03-22T06:26:31.808Z,44.42
2023-03-22T06:29:29.598Z,47.83
2023-03-22T06:32:27.602Z,45.42
2023-03-22T06:35:25.213Z,48.65
2023-03-22T06:38:22.893Z,46.08
2023-03-22T06:41:20.734Z,49.63
2023-03-22T06:44:18.806Z,50.20
2023-03-22T06:47:16.426Z,43.45
2023-03-22T06:50:15.874Z,47.53
2023-03-22T06:53:13.501Z,53.08
2023-03-22T06:56:11.192Z,54.28
2023-03-22T06:59:08.896Z,61.60
2023-03-22T07:02:06.863Z,58.03
2023-03-22T07:05:04.758Z,58.63
2023-03-22T07:08:02.614Z,49.70
2023-03-22T07:11:00.369Z,52.22
2023-03-22T07:13:58.681Z,60.30
2023-03-22T07:16:56.941Z,61.78
2023-03-22T07:19:54.783Z,58.05
2023-03-22T08:19:29.205Z,67.88
2023-03-22T08:22:55.328Z,60.10
2023-03-22T08:25:53.561Z,67.25
2023-03-22T08:28:51.437Z,66.38
2023-03-22T08:31:49.219Z,61.13
2023-03-22T08:34:47.074Z,64.00
2023-03-22T08:37:44.808Z,57.20
2023-03-22T08:40:42.560Z,64.45
2023-03-22T08:43:41.000Z,60.85
2023-03-22T08:46:39.822Z,65.22
2023-03-22T08:49:42.698Z,62.92
2023-03-22T08:52:41.760Z,56.20
2023-03-22T08:55:40.656Z,57.70
2023-03-22T08:58:38.805Z,56.40
2023-03-22T09:01:38.133Z,54.70
2023-03-22T09:04:36.600Z,56.55
2023-03-22T09:07:34.382Z,56.45
2023-03-22T09:10:32.613Z,57.33
2023-03-22T09:13:31.718Z,62.75
2023-03-22T09:16:29.405Z,49.05
2023-03-22T09:19:27.168Z,50.88
2023-03-22T09:22:25.395Z,56.65
2023-03-22T09:25:23.493Z,54.67
2023-03-22T09:28:21.418Z,48.53
2023-03-22T09:31:20.739Z,50.70
2023-03-22T09:34:18.574Z,50.42
2023-03-22T09:37:16.361Z,41.45
2023-03-22T09:40:14.843Z,50.70
2023-03-22T09:43:16.001Z,43.33
2023-03-22T09:46:23.996Z,47.63
2023-03-22T09:49:29.591Z,40.47
2023-03-22T09:52:27.290Z,44.08
2023-03-22T09:55:40.337Z,42.03
2023-03-22T09:59:07.297Z,45.00
2023-03-22T10:02:31.997Z,42.83
2023-03-22T10:05:53.244Z,45.95
2023-03-22T10:08:53.628Z,41.15
2023-03-22T10:12:00.671Z,42.20
2023-03-22T10:15:16.570Z,44.50
2023-03-22T10:18:21.289Z,43.13
2023-03-22T10:21:20.047Z,43.00
2023-03-22T10:24:24.800Z,46.95
2023-03-22T10:27:24.945Z,49.85
2023-03-22T10:30:28.642Z,52.85
2023-03-22T10:33:39.643Z,49.90
2023-03-22T10:36:42.018Z,54.90
2023-03-22T10:39:53.265Z,41.42
2023-03-22T10:43:19.786Z,47.00
2023-03-22T10:46:21.753Z,48.58
2023-03-22T10:49:44.703Z,53.15
2023-03-22T10:52:52.189Z,49.53
2023-03-22T10:55:50.325Z,50.17
2023-03-22T10:58:55.548Z,53.08
2023-03-22T11:01:53.738Z,49.40
2023-03-22T11:04:56.264Z,48.15
2023-03-22T11:07:54.449Z,53.30
2023-03-22T11:10:59.642Z,49.55
2023-03-22T11:14:09.222Z,51.08
2023-03-22T11:17:06.861Z,51.13
2023-03-22T11:24:16.637Z,53.55
2023-03-22T11:27:31.877Z,47.83
2023-03-22T11:34:47.943Z,46.53
2023-03-22T11:37:49.015Z,52.13
2023-03-22T11:41:01.892Z,48.55
2023-03-22T11:44:04.495Z,49.50
2023-03-22T11:47:05.434Z,58.90
2023-03-22T11:50:10.867Z,47.97
2023-03-22T11:53:17.856Z,48.55
2023-03-22T12:00:31.606Z,44.13
2023-03-22T12:03:38.404Z,49.67
2023-03-22T12:06:41.745Z,44.88
2023-03-22T12:09:51.266Z,48.70
2023-03-22T12:12:58.298Z,39.88
2023-03-22T12:16:14.082Z,49.17
2023-03-22T12:19:36.720Z,50.50
2023-03-22T12:22:41.088Z,42.72
2023-03-22T12:25:42.121Z,45.25
2023-03-22T12:29:04.427Z,45.60
2023-03-22T12:32:10.953Z,44.97
2023-03-22T12:35:17.927Z,37.15
2023-03-22T12:38:31.377Z,44.58
2023-03-22T12:41:36.963Z,53.80
2023-03-22T12:44:42.326Z,42.75
2023-03-22T12:47:47.709Z,47.05
2023-03-22T12:51:03.562Z,46.10
2023-03-22T12:54:02.660Z,40.92
2023-03-22T12:57:03.126Z,41.67
2023-03-22T13:00:11.164Z,36.58
2023-03-22T13:03:25.825Z,42.97
2023-03-22T13:06:54.327Z,39.63
2023-03-22T13:09:53.457Z,48.78
2023-03-22T13:13:26.139Z,44.47
2023-03-22T13:16:42.926Z,42.80
2023-03-22T13:19:55.124Z,44.92
2023-03-22T13:23:04.911Z,43.97
2023-03-22T13:26:06.581Z,39.97
2023-03-22T13:29:22.638Z,44.20
2023-03-22T13:32:34.137Z,46.95
2023-03-22T13:35:58.109Z,49.13
2023-03-22T13:38:59.490Z,47.05
2023-03-22T13:42:23.071Z,45.25
2023-03-22T13:45:36.523Z,48.85
2023-03-22T13:48:54.669Z,64.03
2023-03-22T13:51:53.293Z,69.85
2023-03-22T13:54:53.318Z,60.17
2023-03-22T13:57:59.727Z,66.53
2023-03-22T14:00:58.844Z,67.25
2023-03-22T14:04:01.728Z,69.72
2023-03-22T14:07:20.321Z,69.95
2023-03-22T14:10:36.758Z,68.85
2023-03-22T14:13:41.686Z,70.10
2023-03-22T14:16:44.359Z,76.57
2023-03-22T14:19:42.862Z,79.63
